Time;durP1;ratioP1;P1;durP2;ratioP2;P2;SDS_P1;SDS_P2;PMS_P1;PMS_P2;Temp;Humidity;BMP_temperature;BMP_pressure;BME280_temperature;BME280_humidity;BME280_pressure;Samples;Min_cycle;Max_cycle;Signal;HPM_P1;HPM_P2
2022/01/11 00:00:19;;;;;;;121.85;68.43;;;;;;;0.46;93.54;102627.94;7396810;19;20029;-65
2022/01/11 00:02:48;;;;;;;119.05;72.03;;;;;;;0.42;93.91;102633.78;7396064;19;20021;-65
2022/01/11 00:05:22;;;;;;;114.57;66.32;;;;;;;0.39;94.08;102637.91;7396505;19;20014;-65
2022/01/11 00:07:52;;;;;;;122.00;70.35;;;;;;;0.35;92.78;102636.84;7397006;19;20015;-65
2022/01/11 00:10:27;;;;;;;126.15;71.57;;;;;;;0.27;92.31;102631.28;7395157;19;20006;-65
2022/01/11 00:12:56;;;;;;;125.03;73.22;;;;;;;0.21;92.58;102632.69;7396150;19;20568;-66
2022/01/11 00:15:27;;;;;;;128.07;75.80;;;;;;;0.14;92.77;102632.38;7393467;19;20011;-65
2022/01/11 00:17:57;;;;;;;119.30;75.13;;;;;;;0.10;92.39;102643.34;7396936;19;20018;-65
2022/01/11 00:20:27;;;;;;;126.45;74.20;;;;;;;0.07;93.69;102647.47;7396189;19;20025;-65
2022/01/11 00:25:39;;;;;;;132.77;76.05;;;;;;;-0.01;93.12;102647.94;7395833;19;20029;-65
2022/01/11 00:28:08;;;;;;;125.85;72.32;;;;;;;-0.04;92.77;102655.53;7396420;19;20017;-65
2022/01/11 00:30:41;;;;;;;126.82;74.43;;;;;;;-0.09;92.81;102644.09;7395954;19;20014;-66
2022/01/11 00:33:14;;;;;;;132.83;79.10;;;;;;;-0.13;93.15;102649.88;7395572;19;20426;-65
2022/01/11 00:35:45;;;;;;;139.05;76.88;;;;;;;-0.19;93.57;102646.97;7395657;19;20027;-66
2022/01/11 00:38:16;;;;;;;138.27;79.78;;;;;;;-0.25;93.13;102652.69;7396114;19;20360;-65
2022/01/11 00:40:47;;;;;;;132.13;79.10;;;;;;;-0.28;93.14;102646.47;7395995;19;20040;-65
2022/01/11 00:43:16;;;;;;;147.50;81.75;;;;;;;-0.32;92.23;102649.72;7395854;19;20015;-65
2022/01/11 00:45:47;;;;;;;151.10;83.03;;;;;;;-0.35;92.75;102647.84;7395034;19;20093;-65
2022/01/11 00:48:15;;;;;;;141.20;81.82;;;;;;;-0.39;92.38;102651.97;7395521;19;20375;-65
2022/01/11 00:50:44;;;;;;;146.50;81.10;;;;;;;-0.42;92.96;102656.06;7394973;19;20488;-66
2022/01/11 00:53:13;;;;;;;146.70;81.47;;;;;;;-0.47;92.80;102653.22;7395311;19;20021;-65
2022/01/11 00:55:41;;;;;;;142.60;80.38;;;;;;;-0.49;93.24;102657.44;7394349;19;20381;-66
2022/01/11 00:58:10;;;;;;;150.48;82.68;;;;;;;-0.53;92.00;102664.09;7395239;19;20010;-65
2022/01/11 01:00:40;;;;;;;154.32;81.80;;;;;;;-0.58;92.27;102664.63;7395155;19;20018;-66
2022/01/11 01:03:11;;;;;;;159.73;85.88;;;;;;;-0.59;92.81;102665.47;7393779;19;20056;-65
2022/01/11 01:05:39;;;;;;;149.27;86.05;;;;;;;-0.65;93.33;102660.84;7394319;19;20487;-65
2022/01/11 01:08:08;;;;;;;150.65;85.28;;;;;;;-0.62;92.81;102661.03;7394616;19;20359;-66
2022/01/11 01:10:45;;;;;;;157.30;88.22;;;;;;;-0.64;93.00;102662.63;7394832;19;20022;-66
2022/01/11 01:13:17;;;;;;;146.95;82.82;;;;;;;-0.63;92.38;102672.13;7394358;19;20479;-63
2022/01/11 01:15:47;;;;;;;156.73;86.00;;;;;;;-0.67;92.47;102675.31;7394520;19;20018;-66
2022/01/11 01:18:21;;;;;;;163.30;89.32;;;;;;;-0.71;92.48;102674.28;7394498;19;20024;-65
2022/01/11 01:20:49;;;;;;;158.52;85.38;;;;;;;-0.71;92.82;102683.69;7395018;19;20019;-66
2022/01/11 01:23:17;;;;;;;156.10;85.65;;;;;;;-0.70;92.92;102693.22;7393201;19;20357;-66
2022/01/11 01:25:47;;;;;;;156.35;87.68;;;;;;;-0.72;92.56;102690.56;7394182;19;20015;-66
2022/01/11 01:28:17;;;;;;;147.77;81.63;;;;;;;-0.73;92.08;102703.38;7401831;19;20010;-66
2022/01/11 01:30:47;;;;;;;156.95;84.13;;;;;;;-0.78;92.01;102708.25;7401358;19;20010;-66
2022/01/11 01:33:18;;;;;;;160.23;85.38;;;;;;;-0.82;92.77;102706.31;7401703;19;20037;-66
2022/01/11 01:35:52;;;;;;;152.00;82.50;;;;;;;-0.84;92.55;102713.06;7400536;19;20476;-66
2022/01/11 01:38:23;;;;;;;151.90;84.55;;;;;;;-0.87;92.86;102711.19;7402021;19;20014;-66
2022/01/11 01:40:52;;;;;;;157.98;85.30;;;;;;;-0.94;91.75;102706.47;7401913;19;20032;-66
2022/01/11 01:43:21;;;;;;;165.23;86.80;;;;;;;-1.02;91.21;102705.19;7399475;19;20031;-66
2022/01/11 01:45:50;;;;;;;162.70;82.78;;;;;;;-1.01;91.40;102733.59;7400504;19;20041;-66
2022/01/11 01:48:21;;;;;;;159.48;85.85;;;;;;;-1.05;91.64;102730.75;7401128;19;20022;-66
2022/01/11 01:50:51;;;;;;;163.23;86.13;;;;;;;-1.10;91.63;102737.31;7401580;19;20040;-66
2022/01/11 01:53:20;;;;;;;161.88;85.30;;;;;;;-1.13;91.68;102734.59;7400956;19;20014;-66
2022/01/11 01:55:49;;;;;;;158.65;81.63;;;;;;;-1.17;91.70;102738.66;7400293;19;20037;-66
2022/01/11 01:58:18;;;;;;;164.27;84.93;;;;;;;-1.20;92.33;102746.19;7400843;19;20108;-66
2022/01/11 02:00:54;;;;;;;164.27;86.53;;;;;;;-1.21;92.06;102747.00;7400734;19;20015;-66
2022/01/11 02:03:27;;;;;;;161.68;84.78;;;;;;;-1.25;91.57;102742.47;7399077;19;20019;-66
2022/01/11 02:05:57;;;;;;;162.32;83.78;;;;;;;-1.27;91.54;102744.94;7400115;19;20022;-66
2022/01/11 02:08:26;;;;;;;167.20;88.35;;;;;;;-1.32;90.94;102749.81;7400179;19;20015;-66
2022/01/11 02:10:55;;;;;;;167.10;84.20;;;;;;;-1.39;91.57;102742.56;7400665;19;20014;-68
2022/01/11 02:13:24;;;;;;;169.88;85.95;;;;;;;-1.39;92.17;102747.69;7402225;19;20018;-66
2022/01/11 02:15:54;;;;;;;171.70;85.70;;;;;;;-1.41;91.85;102751.84;7399599;19;20025;-66
2022/01/11 02:18:27;;;;;;;171.55;84.30;;;;;;;-1.42;92.26;102742.34;7401011;19;20086;-66
2022/01/11 02:21:04;;;;;;;180.07;87.80;;;;;;;-1.41;92.79;102751.84;7400655;19;20025;-67
2022/01/11 02:23:32;;;;;;;176.18;84.95;;;;;;;-1.46;91.44;102747.25;7398747;19;20029;-68
2022/01/11 02:26:01;;;;;;;166.38;83.00;;;;;;;-1.44;91.82;102750.78;7399714;19;20019;-71
2022/01/11 02:28:31;;;;;;;163.60;80.82;;;;;;;-1.46;91.85;102757.53;7399616;19;20520;-67
2022/01/11 02:31:01;;;;;;;170.85;84.47;;;;;;;-1.49;92.38;102763.41;7399960;19;20014;-67
2022/01/11 02:33:34;;;;;;;166.55;81.78;;;;;;;-1.50;92.16;102762.50;7400263;19;20036;-66
2022/01/11 02:36:08;;;;;;;161.50;78.63;;;;;;;-1.52;92.24;102768.34;7399174;19;20014;-67
2022/01/11 02:38:43;;;;;;;169.07;81.63;;;;;;;-1.52;92.84;102769.22;7397466;19;20363;-66
2022/01/11 02:41:11;;;;;;;158.90;78.35;;;;;;;-1.52;92.67;102768.34;7400004;19;20046;-66
2022/01/11 02:43:43;;;;;;;163.57;79.00;;;;;;;-1.52;92.65;102766.66;7397908;19;20040;-66
2022/01/11 02:46:11;;;;;;;159.73;77.93;;;;;;;-1.52;92.54;102773.50;7398575;19;20204;-67
2022/01/11 02:48:40;;;;;;;160.32;77.95;;;;;;;-1.55;91.63;102779.34;7399331;19;20017;-66
2022/01/11 02:51:11;;;;;;;165.02;78.55;;;;;;;-1.57;92.06;102774.91;7399227;19;20014;-66
2022/01/11 02:53:41;;;;;;;164.13;81.03;;;;;;;-1.60;91.70;102782.47;7398846;19;20479;-67
2022/01/11 02:56:10;;;;;;;164.30;79.15;;;;;;;-1.62;92.42;102778.88;7398283;19;20018;-66
2022/01/11 02:58:39;;;;;;;159.20;76.45;;;;;;;-1.63;92.23;102780.59;7399104;19;20018;-67
2022/01/11 03:01:09;;;;;;;160.45;77.78;;;;;;;-1.62;92.05;102786.59;7398603;19;20505;-66
2022/01/11 03:03:37;;;;;;;165.40;76.18;;;;;;;-1.65;91.38;102792.47;7397638;19;20037;-66
2022/01/11 03:06:08;;;;;;;161.38;72.18;;;;;;;-1.67;91.30;102799.19;7397636;19;20395;-67
2022/01/11 03:08:42;;;;;;;163.27;75.18;;;;;;;-1.71;91.19;102802.38;7398504;19;20014;-67
2022/01/11 03:11:10;;;;;;;155.68;72.20;;;;;;;-1.73;91.41;102803.94;7399159;19;20019;-67
2022/01/11 03:13:41;;;;;;;148.80;69.25;;;;;;;-1.76;91.34;102808.94;7399043;19;20015;-67
2022/01/11 03:16:10;;;;;;;156.93;68.88;;;;;;;-1.80;91.05;102808.72;7399719;19;20086;-68
2022/01/11 03:18:39;;;;;;;165.05;67.47;;;;;;;-1.81;91.54;102806.06;7399683;19;20007;-67
2022/01/11 03:21:07;;;;;;;159.23;68.85;;;;;;;-1.83;91.17;102813.69;7399181;19;20044;-66
2022/01/11 03:23:35;;;;;;;157.65;65.15;;;;;;;-1.86;90.76;102812.59;7397025;19;20010;-66
2022/01/11 03:26:07;;;;;;;161.32;68.40;;;;;;;-1.89;91.41;102823.59;7399114;19;20018;-66
2022/01/11 03:28:36;;;;;;;154.07;66.15;;;;;;;-1.91;91.80;102825.16;7400173;19;20027;-66
2022/01/11 03:31:05;;;;;;;148.32;68.68;;;;;;;-1.91;92.15;102822.59;7397738;19;20026;-66
2022/01/11 03:33:33;;;;;;;149.27;65.22;;;;;;;-1.92;91.70;102826.00;7397000;19;20512;-65
2022/01/11 03:36:02;;;;;;;162.63;66.80;;;;;;;-1.94;91.00;102829.25;7396761;19;20021;-66
2022/01/11 03:38:31;;;;;;;166.13;71.93;;;;;;;-1.94;91.63;102834.41;7397485;19;20014;-66
2022/01/11 03:40:59;;;;;;;160.35;69.50;;;;;;;-1.96;91.85;102839.44;7397518;19;20036;-66
2022/01/11 03:43:30;;;;;;;163.90;70.05;;;;;;;-1.95;92.09;102840.34;7396587;19;20036;-66
2022/01/11 03:45:59;;;;;;;162.93;69.72;;;;;;;-1.96;91.98;102839.44;7397101;19;20014;-66
2022/01/11 03:48:28;;;;;;;150.15;65.78;;;;;;;-1.98;91.84;102834.19;7397083;19;20014;-66
2022/01/11 03:50:56;;;;;;;146.40;64.63;;;;;;;-1.97;92.19;102837.69;7397723;19;20052;-66
2022/01/11 03:53:31;;;;;;;167.05;68.88;;;;;;;-1.97;92.16;102837.69;7397162;19;20015;-66
2022/01/11 03:56:21;;;;;;;146.73;66.50;;;;;;;-1.96;92.16;102836.84;7396781;19;20018;-66
2022/01/11 03:58:53;;;;;;;143.65;60.55;;;;;;;-1.95;92.36;102840.34;7397351;19;20014;-66
2022/01/11 04:01:22;;;;;;;143.30;63.17;;;;;;;-1.96;91.58;102834.28;7397329;19;20007;-66
2022/01/11 04:03:51;;;;;;;152.32;64.72;;;;;;;-1.96;91.42;102831.72;7395360;19;20388;-66
2022/01/11 04:06:19;;;;;;;150.73;62.75;;;;;;;-1.95;91.88;102842.91;7395746;19;20041;-66
2022/01/11 04:08:48;;;;;;;149.57;65.07;;;;;;;-1.95;92.70;102843.78;7395984;19;20028;-66
2022/01/11 04:11:17;;;;;;;145.82;59.65;;;;;;;-1.96;92.14;102842.00;7396082;19;20371;-66
2022/01/11 04:13:45;;;;;;;148.32;60.40;;;;;;;-1.94;92.76;102850.72;7396450;19;20040;-65
2022/01/11 04:16:16;;;;;;;150.55;60.38;;;;;;;-1.93;92.88;102846.44;7395519;19;20029;-65
2022/01/11 04:18:45;;;;;;;151.52;62.00;;;;;;;-1.93;92.47;102852.50;7396554;19;20010;-66
2022/01/11 04:21:13;;;;;;;152.20;63.28;;;;;;;-1.92;92.38;102858.53;7396072;19;20018;-66
2022/01/11 04:23:41;;;;;;;151.18;62.35;;;;;;;-1.93;92.60;102857.66;7395506;19;20010;-66
2022/01/11 04:26:09;;;;;;;147.70;58.70;;;;;;;-1.92;92.61;102862.00;7395435;19;20018;-65
2022/01/11 04:28:38;;;;;;;139.23;57.97;;;;;;;-1.92;92.00;102854.28;7395746;19;20018;-66
2022/01/11 04:31:06;;;;;;;119.60;47.97;;;;;;;-1.93;92.06;102860.22;7395861;19;20042;-66
2022/01/11 04:33:42;;;;;;;129.20;53.47;;;;;;;-1.95;92.05;102848.94;7395059;19;20496;-67
2022/01/11 04:36:11;;;;;;;123.10;51.40;;;;;;;-2.00;91.30;102850.31;7395303;19;20022;-65
2022/01/11 04:38:39;;;;;;;121.90;49.88;;;;;;;-1.98;91.75;102859.03;7395298;19;20032;-66
2022/01/11 04:41:07;;;;;;;115.97;47.13;;;;;;;-1.98;91.95;102859.03;7395446;19;20035;-65
2022/01/11 04:43:35;;;;;;;115.60;49.03;;;;;;;-2.00;92.02;102865.75;7394487;19;20018;-67
2022/01/11 04:46:03;;;;;;;118.13;48.30;;;;;;;-2.02;91.48;102862.19;7394961;19;20018;-67
2022/01/11 04:48:32;;;;;;;112.55;46.08;;;;;;;-2.04;91.82;102866.38;7394851;19;20019;-66
2022/01/11 04:51:06;;;;;;;119.90;47.67;;;;;;;-2.13;91.87;102852.09;7395016;19;20032;-67
2022/01/11 04:53:34;;;;;;;127.20;49.07;;;;;;;-2.05;92.12;102869.72;7395116;19;20026;-66
2022/01/11 04:56:02;;;;;;;132.00;52.05;;;;;;;-2.04;92.56;102867.25;7394209;19;20018;-67
2022/01/11 04:58:30;;;;;;;122.75;49.30;;;;;;;-2.03;92.27;102868.16;7394787;19;20035;-67
2022/01/11 05:00:59;;;;;;;119.95;47.75;;;;;;;-2.04;91.90;102874.09;7395760;19;20022;-66
2022/01/11 05:03:27;;;;;;;122.57;48.50;;;;;;;-2.04;92.11;102874.97;7401524;19;20014;-66
2022/01/11 05:05:55;;;;;;;123.20;50.17;;;;;;;-2.03;92.53;102876.75;7401259;19;20039;-66
2022/01/11 05:08:26;;;;;;;119.03;45.95;;;;;;;-2.02;92.69;102875.06;7401973;19;20023;-66
2022/01/11 05:10:54;;;;;;;116.75;48.67;;;;;;;-2.02;92.02;102883.69;7399004;19;20014;-66
2022/01/11 05:13:23;;;;;;;108.25;45.10;;;;;;;-2.05;92.58;102867.16;7402385;19;20032;-64
2022/01/11 05:15:51;;;;;;;112.35;44.05;;;;;;;-2.00;92.54;102881.19;7401341;19;20014;-65
2022/01/11 05:18:19;;;;;;;111.93;46.67;;;;;;;-2.01;92.45;102885.47;7401972;19;20022;-66
2022/01/11 05:20:48;;;;;;;106.68;43.90;;;;;;;-2.01;92.37;102880.31;7401704;19;20023;-67
2022/01/11 05:23:16;;;;;;;112.03;46.42;;;;;;;-2.00;91.42;102887.25;7401645;19;20020;-65
2022/01/11 05:25:47;;;;;;;110.38;44.33;;;;;;;-1.99;91.72;102895.84;7401170;19;20035;-66
2022/01/11 05:28:15;;;;;;;100.18;46.30;;;;;;;-2.00;91.63;102899.22;7401517;19;20022;-67
2022/01/11 05:30:43;;;;;;;100.22;44.17;;;;;;;-2.02;91.95;102893.06;7401443;19;20014;-65
2022/01/11 05:33:12;;;;;;;106.63;44.55;;;;;;;-2.00;92.08;102906.94;7400776;19;20019;-67
2022/01/11 05:35:40;;;;;;;96.38;43.30;;;;;;;-1.99;91.90;102901.00;7400746;19;20026;-66
2022/01/11 05:38:08;;;;;;;96.30;41.20;;;;;;;-2.02;92.11;102899.13;7401140;19;20011;-65
2022/01/11 05:40:37;;;;;;;105.90;42.75;;;;;;;-2.01;91.92;102900.00;7400483;19;20488;-66
2022/01/11 05:43:09;;;;;;;95.22;39.33;;;;;;;-2.02;91.60;102903.34;7401125;19;20027;-64
2022/01/11 05:45:37;;;;;;;95.38;39.60;;;;;;;-2.10;91.75;102897.72;7400458;19;20041;-65
2022/01/11 05:48:06;;;;;;;102.50;41.70;;;;;;;-2.02;91.56;102896.53;7400810;19;20015;-65
2022/01/11 05:50:34;;;;;;;95.97;40.72;;;;;;;-2.02;92.32;102899.13;7400666;19;20105;-66
2022/01/11 05:53:03;;;;;;;100.25;40.50;;;;;;;-2.00;92.35;102899.22;7399249;19;20035;-65
2022/01/11 05:55:31;;;;;;;107.38;41.42;;;;;;;-1.98;91.92;102900.22;7398725;19;20022;-67
2022/01/11 05:57:59;;;;;;;106.32;43.38;;;;;;;-2.00;91.06;102905.25;7399065;19;20434;-65
2022/01/11 06:00:30;;;;;;;106.50;42.05;;;;;;;-2.02;91.54;102901.69;7399047;19;20027;-66
2022/01/11 06:02:58;;;;;;;101.50;41.35;;;;;;;-2.04;91.77;102905.81;7399241;19;20354;-66
2022/01/11 06:05:27;;;;;;;102.38;42.30;;;;;;;-2.06;91.09;102909.09;7397085;19;20014;-67
2022/01/11 06:07:55;;;;;;;102.22;43.03;;;;;;;-2.10;90.60;102914.84;7398643;19;20011;-66
2022/01/11 06:10:23;;;;;;;105.30;39.28;;;;;;;-2.16;91.21;102912.75;7397627;19;20014;-67
2022/01/11 06:12:51;;;;;;;110.95;42.58;;;;;;;-2.19;91.10;102918.56;7399601;19;20035;-67
2022/01/11 06:15:19;;;;;;;107.38;42.80;;;;;;;-2.18;91.71;102922.06;7399467;19;20027;-67
2022/01/11 06:17:50;;;;;;;108.03;43.67;;;;;;;-2.23;92.24;102914.03;7399217;19;20362;-66
2022/01/11 06:20:18;;;;;;;112.32;43.45;;;;;;;-2.17;91.96;102923.84;7398474;19;20101;-66
2022/01/11 06:22:46;;;;;;;109.85;42.50;;;;;;;-2.19;91.19;102928.88;7399043;19;20412;-66
2022/01/11 06:25:15;;;;;;;101.47;40.70;;;;;;;-2.20;91.06;102933.91;7397721;19;20039;-67
2022/01/11 06:27:43;;;;;;;105.65;42.63;;;;;;;-2.21;91.75;102932.13;7399783;19;20035;-69
2022/01/11 06:30:14;;;;;;;104.55;42.30;;;;;;;-2.20;91.93;102939.97;7399717;19;20014;-65
2022/01/11 06:32:43;;;;;;;101.05;41.63;;;;;;;-2.26;91.09;102934.41;7400719;19;20018;-67
2022/01/11 06:35:15;;;;;;;99.15;41.45;;;;;;;-2.21;91.69;102940.75;7398620;19;20021;-66
2022/01/11 06:37:44;;;;;;;103.95;39.53;;;;;;;-2.21;91.20;102939.84;7399925;19;20035;-66
2022/01/11 06:40:13;;;;;;;107.55;43.70;;;;;;;-2.21;91.95;102945.91;7398636;19;20383;-67
2022/01/11 06:42:42;;;;;;;114.15;45.20;;;;;;;-2.24;92.47;102943.09;7399104;19;20018;-66
2022/01/11 06:45:11;;;;;;;109.85;46.28;;;;;;;-2.17;92.60;102952.13;7396677;19;20035;-65
2022/01/11 06:47:40;;;;;;;109.60;43.85;;;;;;;-2.15;92.75;102953.09;7398949;19;20014;-68
2022/01/11 06:50:09;;;;;;;107.57;45.17;;;;;;;-2.18;92.83;102942.63;7399070;19;20018;-66
2022/01/11 06:52:40;;;;;;;115.00;45.45;;;;;;;-2.10;92.71;102949.16;7398445;19;20018;-66
2022/01/11 06:55:10;;;;;;;98.43;40.17;;;;;;;-2.07;92.59;102959.66;7398205;19;20491;-67
2022/01/11 06:57:38;;;;;;;99.90;41.83;;;;;;;-2.06;92.38;102957.97;7396599;19;20040;-67
2022/01/11 07:00:29;;;;;;;86.40;38.15;;;;;;;-2.06;92.30;102966.59;7398110;19;20006;-67
2022/01/11 07:02:57;;;;;;;82.25;37.45;;;;;;;-2.05;92.56;102968.34;7398796;19;20022;-67
2022/01/11 07:05:25;;;;;;;88.20;39.42;;;;;;;-2.04;92.19;102977.84;7396562;19;20035;-67
2022/01/11 07:07:56;;;;;;;89.22;38.78;;;;;;;-2.04;92.53;102969.25;7398405;19;20022;-67
2022/01/11 07:10:37;;;;;;;79.10;34.30;;;;;;;-2.02;92.34;102973.72;7396886;19;20031;-67
2022/01/11 07:13:05;;;;;;;85.03;38.15;;;;;;;-2.00;92.48;102978.97;7398487;19;20028;-66
2022/01/11 07:15:34;;;;;;;89.68;39.40;;;;;;;-1.99;92.39;102983.31;7397519;19;20047;-67
2022/01/11 07:18:06;;;;;;;85.93;36.33;;;;;;;-1.98;92.15;102983.41;7397805;19;20032;-67
2022/01/11 07:20:34;;;;;;;95.35;39.33;;;;;;;-1.95;91.94;102982.72;7398293;19;20025;-67
2022/01/11 07:23:06;;;;;;;167.38;70.13;;;;;;;-1.93;92.20;102985.38;7397595;19;20154;-66
2022/01/11 07:25:35;;;;;;;82.75;35.88;;;;;;;-1.93;92.41;102993.09;7394469;19;20094;-67
2022/01/11 07:28:04;;;;;;;77.45;34.70;;;;;;;-1.92;92.19;102987.19;7396625;19;20019;-67
2022/01/11 07:30:32;;;;;;;81.38;36.42;;;;;;;-1.91;91.21;102986.38;7396830;19;20480;-67
2022/01/11 07:33:01;;;;;;;72.20;33.08;;;;;;;-1.92;90.80;102989.75;7397202;19;20027;-66
2022/01/11 07:35:29;;;;;;;73.32;32.20;;;;;;;-1.93;91.44;102985.38;7396941;19;20018;-67
2022/01/11 07:37:57;;;;;;;71.25;32.88;;;;;;;-1.92;91.42;102988.09;7397194;19;20041;-66
2022/01/11 07:40:28;;;;;;;76.95;34.42;;;;;;;-1.90;91.73;102990.75;7396695;19;20031;-67
2022/01/11 07:42:56;;;;;;;66.88;32.65;;;;;;;-1.89;91.64;102998.56;7396911;19;20475;-67
2022/01/11 07:45:24;;;;;;;80.78;34.97;;;;;;;-1.86;91.87;103001.34;7395434;19;20023;-66
2022/01/11 07:47:53;;;;;;;71.93;35.85;;;;;;;-1.84;91.95;102994.59;7397833;19;20015;-67
2022/01/11 07:50:21;;;;;;;70.25;32.13;;;;;;;-1.73;91.71;102996.97;7397069;19;20019;-67
2022/01/11 07:52:51;;;;;;;72.80;34.95;;;;;;;-1.72;91.40;103001.34;7396946;19;20018;-68
2022/01/11 07:55:20;;;;;;;77.45;35.35;;;;;;;-1.70;91.29;103004.94;7396817;19;20058;-67
2022/01/11 07:57:51;;;;;;;73.30;33.25;;;;;;;-1.69;92.02;103012.75;7396903;19;20031;-65
2022/01/11 08:00:19;;;;;;;74.68;36.17;;;;;;;-1.67;91.95;103017.97;7397117;19;20011;-67
2022/01/11 08:02:47;;;;;;;78.28;35.95;;;;;;;-1.66;91.80;103019.75;7396649;19;20018;-66
2022/01/11 08:05:16;;;;;;;70.82;33.33;;;;;;;-1.66;92.01;103020.66;7395498;19;20504;-66
2022/01/11 08:07:44;;;;;;;70.53;32.95;;;;;;;-1.63;90.79;103032.84;7396577;19;20025;-66
2022/01/11 08:10:17;;;;;;;64.45;31.80;;;;;;;-1.62;91.39;103028.59;7394958;19;20025;-66
2022/01/11 08:12:45;;;;;;;62.55;30.73;;;;;;;-1.62;90.95;103037.19;7398118;19;20027;-67
2022/01/11 08:15:16;;;;;;;74.72;34.88;;;;;;;-1.63;91.02;103032.84;7395783;19;20031;-67
2022/01/11 08:17:44;;;;;;;69.82;32.88;;;;;;;-1.67;90.94;103034.34;7395833;19;20011;-66
2022/01/11 08:20:13;;;;;;;83.43;41.83;;;;;;;-1.68;91.43;103029.97;7395522;19;20025;-66
2022/01/11 08:22:41;;;;;;;74.03;35.33;;;;;;;-1.66;90.99;103032.63;7395626;19;20019;-67
2022/01/11 08:25:11;;;;;;;70.40;33.88;;;;;;;-1.72;90.83;103024.50;7394613;19;20479;-65
2022/01/11 08:27:39;;;;;;;75.82;37.60;;;;;;;-1.69;91.02;103032.44;7395538;19;20018;-65
2022/01/11 08:30:09;;;;;;;79.88;35.45;;;;;;;-1.69;91.21;103035.91;7395772;19;20011;-66
2022/01/11 08:32:40;;;;;;;70.78;34.65;;;;;;;-1.69;91.39;103033.34;7395690;19;20015;-66
2022/01/11 08:35:10;;;;;;;70.28;32.15;;;;;;;-1.69;91.43;103030.75;7394686;19;20023;-66
2022/01/11 08:37:38;;;;;;;75.28;33.03;;;;;;;-1.68;91.24;103036.78;7392436;19;20018;-66
2022/01/11 08:40:08;;;;;;;62.05;31.48;;;;;;;-1.67;91.12;103036.91;7395522;19;20031;-66
2022/01/11 08:42:36;;;;;;;63.20;30.67;;;;;;;-1.66;90.67;103048.09;7394879;19;20491;-66
2022/01/11 08:45:05;;;;;;;70.35;34.67;;;;;;;-1.67;91.33;103041.16;7394437;19;20042;-66
2022/01/11 08:47:34;;;;;;;68.40;33.90;;;;;;;-1.67;91.16;103043.72;7393205;19;20031;-65
2022/01/11 08:50:09;;;;;;;72.70;32.60;;;;;;;-1.68;91.50;103044.50;7395074;19;20015;-65
2022/01/11 08:52:37;;;;;;;69.00;33.17;;;;;;;-1.62;91.53;103052.63;7395502;19;20029;-66
2022/01/11 08:55:07;;;;;;;64.28;32.00;;;;;;;-1.61;90.03;103050.97;7395010;19;20035;-65
2022/01/11 08:57:35;;;;;;;65.65;31.45;;;;;;;-1.62;90.98;103049.19;7392914;19;20480;-67
2022/01/11 09:00:06;;;;;;;64.55;31.95;;;;;;;-1.62;91.26;103050.06;7394880;19;20015;-66
2022/01/11 09:02:35;;;;;;;67.35;32.30;;;;;;;-1.59;91.00;103060.56;7395431;19;20034;-66
2022/01/11 09:05:07;;;;;;;62.47;32.30;;;;;;;-1.59;90.03;103055.44;7394223;19;20017;-66
2022/01/11 09:07:35;;;;;;;66.07;33.03;;;;;;;-1.60;90.03;103058.78;7393016;19;20035;-67
2022/01/11 09:10:03;;;;;;;70.35;35.13;;;;;;;-1.61;90.97;103051.84;7393908;19;20031;-67
2022/01/11 09:12:31;;;;;;;64.88;31.17;;;;;;;-1.62;90.79;103051.75;7394424;19;20412;-66
2022/01/11 09:14:59;;;;;;;61.30;30.75;;;;;;;-1.61;90.88;103051.84;7394792;19;20028;-67
2022/01/11 09:17:28;;;;;;;64.90;32.20;;;;;;;-1.58;91.04;103054.63;7392753;19;20035;-66
2022/01/11 09:19:56;;;;;;;67.13;32.90;;;;;;;-1.56;91.03;103054.72;7394583;19;20028;-66
2022/01/11 09:22:27;;;;;;;61.97;31.05;;;;;;;-1.54;91.07;103059.19;7394298;19;20095;-66
2022/01/11 09:24:56;;;;;;;66.10;30.92;;;;;;;-1.51;90.85;103064.53;7393717;19;20036;-66
2022/01/11 09:27:24;;;;;;;54.45;27.77;;;;;;;-1.48;89.83;103063.81;7392281;19;20095;-66
2022/01/11 09:29:53;;;;;;;57.10;28.40;;;;;;;-1.46;90.12;103063.94;7394136;19;20022;-66
2022/01/11 09:32:21;;;;;;;57.55;28.83;;;;;;;-1.46;90.22;103054.53;7393908;19;20011;-66
2022/01/11 09:34:49;;;;;;;53.85;28.90;;;;;;;-1.44;90.75;103060.69;7393781;19;20022;-67
2022/01/11 09:37:17;;;;;;;52.38;28.90;;;;;;;-1.40;90.29;103066.91;7391683;19;20022;-67
2022/01/11 09:39:48;;;;;;;60.97;29.88;;;;;;;-1.38;89.76;103070.47;7393442;19;20035;-66
2022/01/11 09:42:16;;;;;;;62.13;28.05;;;;;;;-1.38;89.59;103071.38;7393643;19;20018;-67
2022/01/11 09:44:46;;;;;;;59.30;28.38;;;;;;;-1.44;90.36;103062.34;7393525;19;20026;-67
2022/01/11 09:47:15;;;;;;;53.80;27.55;;;;;;;-1.36;89.72;103064.63;7393324;19;20475;-66
2022/01/11 09:49:44;;;;;;;53.45;26.00;;;;;;;-1.36;89.40;103062.06;7401553;19;20033;-66
2022/01/11 09:52:14;;;;;;;53.58;27.20;;;;;;;-1.35;89.35;103065.53;7400763;19;20022;-67
2022/01/11 09:54:44;;;;;;;57.63;28.80;;;;;;;-1.38;88.31;103067.91;7401618;19;20014;-67
2022/01/11 09:57:15;;;;;;;55.78;28.17;;;;;;;-1.39;88.72;103068.69;7398451;19;20506;-66
2022/01/11 09:59:44;;;;;;;60.00;27.65;;;;;;;-1.41;88.31;103065.16;7401343;19;20027;-67
2022/01/11 10:02:14;;;;;;;60.80;30.17;;;;;;;-1.45;89.36;103060.56;7400359;19;20015;-67
2022/01/11 10:04:44;;;;;;;60.28;29.75;;;;;;;-1.46;88.89;103059.69;7400395;19;20035;-67
2022/01/11 10:07:13;;;;;;;62.40;29.15;;;;;;;-1.49;87.81;103068.09;7398017;19;20018;-66
2022/01/11 10:09:48;;;;;;;59.42;27.33;;;;;;;-1.53;87.72;103071.28;7399205;19;20032;-67
2022/01/11 10:12:22;;;;;;;53.60;27.00;;;;;;;-1.55;88.48;103061.66;7399456;19;20509;-67
2022/01/11 10:14:52;;;;;;;59.70;29.77;;;;;;;-1.56;89.08;103062.47;7400090;19;20019;-67
2022/01/11 10:17:23;;;;;;;57.00;28.80;;;;;;;-1.62;88.04;103050.06;7397511;19;20035;-67
2022/01/11 10:19:53;;;;;;;63.60;30.33;;;;;;;-1.59;88.65;103059.66;7399821;19;20014;-68
2022/01/11 10:22:23;;;;;;;54.78;26.55;;;;;;;-1.60;88.88;103056.22;7399482;19;20019;-67
2022/01/11 10:24:53;;;;;;;58.97;28.05;;;;;;;-1.60;89.45;103052.75;7400551;19;20015;-67
2022/01/11 10:27:28;;;;;;;60.28;27.65;;;;;;;-1.58;89.61;103052.06;7397248;19;20018;-68
2022/01/11 10:29:58;;;;;;;63.20;28.88;;;;;;;-1.55;89.74;103053.94;7399955;19;20075;-67
2022/01/11 10:32:30;;;;;;;56.88;27.02;;;;;;;-1.55;89.12;103053.94;7398482;19;20017;-67
2022/01/11 10:35:01;;;;;;;55.30;27.70;;;;;;;-1.52;89.76;103047.28;7398964;19;20029;-66
2022/01/11 10:37:32;;;;;;;53.03;28.20;;;;;;;-1.48;89.79;103054.44;7396146;19;20045;-66
2022/01/11 10:40:11;;;;;;;57.72;27.85;;;;;;;-1.44;89.37;103046.91;7398710;19;20421;-66
2022/01/11 10:42:48;;;;;;;56.25;28.17;;;;;;;-1.42;88.75;103059.09;7399471;19;20037;-66
2022/01/11 10:45:19;;;;;;;51.00;25.42;;;;;;;-1.39;89.01;103053.22;7399453;19;20083;-68
2022/01/11 10:47:49;;;;;;;47.72;24.73;;;;;;;-1.38;88.35;103060.19;7400580;19;20049;-65
2022/01/11 10:50:22;;;;;;;51.47;25.95;;;;;;;-1.36;89.30;103059.47;7399651;19;20030;-63
2022/01/11 10:52:51;;;;;;;51.25;26.58;;;;;;;-1.34;89.37;103059.56;7399021;19;20033;-65
2022/01/11 10:55:21;;;;;;;56.45;26.45;;;;;;;-1.31;89.23;103055.50;7398602;19;20031;-65
2022/01/11 10:57:55;;;;;;;56.15;27.48;;;;;;;-1.26;89.22;103067.78;7398731;19;20023;-65
2022/01/11 11:00:31;;;;;;;57.80;27.77;;;;;;;-1.25;88.65;103067.91;7397204;19;20031;-65
2022/01/11 11:03:07;;;;;;;57.38;27.60;;;;;;;-1.28;88.60;103067.69;7399309;19;20022;-66
2022/01/11 11:05:38;;;;;;;47.13;23.98;;;;;;;-1.24;88.12;103073.94;7397503;19;20034;-65
2022/01/11 11:08:11;;;;;;;50.80;25.05;;;;;;;-1.24;89.10;103074.84;7399107;19;20014;-65
2022/01/11 11:10:50;;;;;;;60.97;28.83;;;;;;;-1.22;88.75;103078.41;7396563;19;20023;-66
2022/01/11 11:13:26;;;;;;;52.25;26.63;;;;;;;-1.21;88.92;103075.03;7399289;19;20035;-64
2022/01/11 11:15:57;;;;;;;52.65;26.85;;;;;;;-1.19;89.27;103076.03;7398526;19;20035;-65
2022/01/11 11:18:31;;;;;;;55.08;26.80;;;;;;;-1.17;89.30;103069.28;7398088;19;20073;-66